Terminal Aerodrome Forecast
Issued by NWS Northern Indiana

Home | Current Version | Previous Version | Text Only | Print | Product List | Glossary On
Versions: 1 2 3 4 5 6 7 8 9 10 11 12 13 14 15 16 17 18 19
000
FTUS43 KIWX 171120
TAFFWA
TAF
KFWA 171120Z 1712/1812 19005KT P6SM BKN060
     FM172300 22004KT P6SM VCTS BKN060CB
     FM180600 VRB03KT P6SM BKN070
     FM181100 02003KT 3SM BR BKN020=

USA.gov is the U.S. government's official web portal to all federal, state and local government web resources and services.